nws-alerts: Checking more than four warning/county codes can delay the loading of your pages. You should use a cron job to get the data.
EllijayWeather Historical Data
Daily Summary for November 08, 2019 Units:  English    Metric   Both
Daily Weekly Monthly Yearly
  High: Low: Average:
Temperature: 51.0 °F 29.0 °F 41.6 °F
Dew Point: 49.0 °F 27.0 °F 35 °F
Humidity: 94% 56% 79%
Wind Speed: 15mph 0mph 2.9mph
Wind Gust: 15mph - -
Wind- - West
Pressure: 30.3 in 30.1 in -
Precipitation: 0.000 in    
 
 
Tabular Data for November 08, 2019
Time Temperature Dew Point Pressure Wind Wind Speed Wind Gust Humidity Rainfall Rate (Hourly)
00:04 51.0 °F 49.0 °F 30.2 in NW 10 mph 11 mph 94% 0.000 in
00:09 51.0 °F 49.0 °F 30.2 in NNW 2 mph 5 mph 93% 0.000 in
00:14 50.0 °F 49.0 °F 30.1 in NW 5 mph 9 mph 94% 0.000 in
00:19 50.0 °F 48.0 °F 30.1 in WNW 10 mph 10 mph 93% 0.000 in
00:24 50.0 °F 48.0 °F 30.1 in NNE 5 mph 5 mph 93% 0.000 in
00:29 50.0 °F 48.0 °F 30.2 in NNE 5 mph 8 mph 93% 0.000 in
00:34 49.0 °F 47.0 °F 30.2 in NNW 5 mph 8 mph 93% 0.000 in
00:39 49.0 °F 47.0 °F 30.2 in NW 11 mph 11 mph 93% 0.000 in
00:44 49.0 °F 47.0 °F 30.2 in NE 1 mph 5 mph 93% 0.000 in
00:49 49.0 °F 47.0 °F 30.2 in North 5 mph 9 mph 93% 0.000 in
00:54 49.0 °F 47.0 °F 30.2 in North 5 mph 7 mph 94% 0.000 in
00:59 49.0 °F 47.0 °F 30.2 in NW 5 mph 8 mph 93% 0.000 in
01:04 49.0 °F 47.0 °F 30.2 in Calm   8 mph 93% 0.000 in
01:09 48.0 °F 46.0 °F 30.2 in NNW 6 mph 8 mph 93% 0.000 in
01:14 48.0 °F 46.0 °F 30.2 in WNW 3 mph 7 mph 93% 0.000 in
01:19 48.0 °F 46.0 °F 30.2 in Calm   4 mph 93% 0.000 in
01:24 48.0 °F 46.0 °F 30.2 in NE 1 mph 5 mph 93% 0.000 in
01:29 48.0 °F 46.0 °F 30.2 in NW 6 mph 9 mph 93% 0.000 in
01:34 48.0 °F 46.0 °F 30.2 in NE 4 mph 11 mph 92% 0.000 in
01:39 48.0 °F 46.0 °F 30.2 in ENE 5 mph 10 mph 91% 0.000 in
01:44 48.0 °F 46.0 °F 30.2 in NNW 11 mph 11 mph 91% 0.000 in
01:49 48.0 °F 45.0 °F 30.2 in NW 6 mph 9 mph 90% 0.000 in
01:54 48.0 °F 45.0 °F 30.2 in NE 1 mph 5 mph 91% 0.000 in
01:59 48.0 °F 45.0 °F 30.2 in North 5 mph 10 mph 91% 0.000 in
02:04 48.0 °F 45.0 °F 30.2 in NW 3 mph 5 mph 90% 0.000 in
02:09 48.0 °F 45.0 °F 30.2 in NW 4 mph 5 mph 90% 0.000 in
02:14 47.0 °F 45.0 °F 30.2 in NNW 7 mph 11 mph 90% 0.000 in
02:19 47.0 °F 44.0 °F 30.2 in NW 9 mph 11 mph 89% 0.000 in
02:24 47.0 °F 44.0 °F 30.2 in NW 3 mph 12 mph 89% 0.000 in
02:29 47.0 °F 44.0 °F 30.2 in NNW 9 mph 9 mph 89% 0.000 in
02:34 47.0 °F 44.0 °F 30.2 in NNW 5 mph 12 mph 89% 0.000 in
02:39 47.0 °F 43.0 °F 30.2 in WNW 3 mph 12 mph 88% 0.000 in
02:44 47.0 °F 43.0 °F 30.2 in NW 4 mph 11 mph 88% 0.000 in
02:49 46.0 °F 43.0 °F 30.2 in NW 8 mph 11 mph 89% 0.000 in
02:54 46.0 °F 43.0 °F 30.2 in NW 4 mph 10 mph 89% 0.000 in
02:59 46.0 °F 43.0 °F 30.2 in WNW 4 mph 6 mph 88% 0.000 in
03:04 46.0 °F 43.0 °F 30.2 in West 3 mph 7 mph 88% 0.000 in
03:09 46.0 °F 43.0 °F 30.2 in WNW 5 mph 7 mph 88% 0.000 in
03:14 46.0 °F 42.0 °F 30.2 in WNW 5 mph 7 mph 88% 0.000 in
03:19 46.0 °F 42.0 °F 30.2 in NNW 7 mph 11 mph 87% 0.000 in
03:24 46.0 °F 42.0 °F 30.2 in NNW 8 mph 11 mph 86% 0.000 in
03:29 46.0 °F 42.0 °F 30.2 in North 4 mph 8 mph 87% 0.000 in
03:34 45.0 °F 42.0 °F 30.2 in NNE 3 mph 6 mph 87% 0.000 in
03:39 45.0 °F 42.0 °F 30.2 in NW 2 mph 7 mph 88% 0.000 in
03:44 45.0 °F 42.0 °F 30.2 in West 3 mph 6 mph 89% 0.000 in
03:49 45.0 °F 41.0 °F 30.2 in WNW 4 mph 13 mph 87% 0.000 in
03:54 45.0 °F 41.0 °F 30.2 in NW 10 mph 10 mph 87% 0.000 in
03:59 45.0 °F 41.0 °F 30.2 in NNW 3 mph 4 mph 87% 0.000 in
04:04 45.0 °F 41.0 °F 30.2 in West 8 mph 8 mph 88% 0.000 in
04:09 44.0 °F 41.0 °F 30.2 in NNW 4 mph 11 mph 86% 0.000 in
04:14 44.0 °F 41.0 °F 30.2 in SW 2 mph 5 mph 86% 0.000 in
04:19 44.0 °F 40.0 °F 30.2 in WNW 7 mph 11 mph 86% 0.000 in
04:24 44.0 °F 40.0 °F 30.2 in NW 2 mph 9 mph 86% 0.000 in
04:29 44.0 °F 40.0 °F 30.2 in West 4 mph 5 mph 86% 0.000 in
04:34 44.0 °F 40.0 °F 30.2 in WNW 1 mph 5 mph 86% 0.000 in
04:39 44.0 °F 40.0 °F 30.2 in WNW 5 mph 11 mph 86% 0.000 in
04:44 44.0 °F 40.0 °F 30.2 in NNE 5 mph 11 mph 85% 0.000 in
04:49 44.0 °F 39.0 °F 30.2 in NW 3 mph 5 mph 85% 0.000 in
04:54 44.0 °F 40.0 °F 30.2 in WSW 1 mph 3 mph 86% 0.000 in
04:59 43.0 °F 39.0 °F 30.2 in North 3 mph 8 mph 85% 0.000 in
05:04 43.0 °F 39.0 °F 30.2 in East 5 mph 10 mph 85% 0.000 in
05:09 43.0 °F 39.0 °F 30.2 in NW 3 mph 10 mph 86% 0.000 in
05:14 43.0 °F 39.0 °F 30.2 in Calm   4 mph 86% 0.000 in
05:19 43.0 °F 39.0 °F 30.2 in WNW 5 mph 7 mph 85% 0.000 in
05:24 43.0 °F 39.0 °F 30.2 in NNW 2 mph 8 mph 84% 0.000 in
05:29 43.0 °F 38.0 °F 30.2 in NNE 8 mph 12 mph 83% 0.000 in
05:34 43.0 °F 38.0 °F 30.2 in West 3 mph 8 mph 84% 0.000 in
05:39 42.0 °F 38.0 °F 30.2 in WNW 5 mph 5 mph 85% 0.000 in
05:44 42.0 °F 38.0 °F 30.2 in Calm   6 mph 84% 0.000 in
05:49 42.0 °F 38.0 °F 30.2 in NW 3 mph 8 mph 84% 0.000 in
05:54 42.0 °F 37.0 °F 30.2 in WNW 3 mph 10 mph 84% 0.000 in
05:59 42.0 °F 37.0 °F 30.2 in WNW 10 mph 10 mph 84% 0.000 in
06:04 41.0 °F 37.0 °F 30.2 in North 3 mph 6 mph 85% 0.000 in
06:09 41.0 °F 36.0 °F 30.2 in North 15 mph 15 mph 84% 0.000 in
06:14 41.0 °F 36.0 °F 30.2 in NW 3 mph 10 mph 84% 0.000 in
06:19 41.0 °F 36.0 °F 30.2 in North 4 mph 6 mph 85% 0.000 in
06:24 40.0 °F 36.0 °F 30.2 in North 7 mph 7 mph 85% 0.000 in
06:29 40.0 °F 36.0 °F 30.2 in WNW 4 mph 9 mph 85% 0.000 in
06:34 40.0 °F 36.0 °F 30.2 in WNW 2 mph 9 mph 86% 0.000 in
06:39 40.0 °F 35.0 °F 30.2 in NW 11 mph 13 mph 85% 0.000 in
06:44 39.0 °F 35.0 °F 30.2 in NW 9 mph 11 mph 85% 0.000 in
06:49 39.0 °F 35.0 °F 30.2 in NW 5 mph 9 mph 84% 0.000 in
06:54 39.0 °F 35.0 °F 30.2 in NNW 7 mph 8 mph 84% 0.000 in
06:59 39.0 °F 35.0 °F 30.2 in NW 2 mph 7 mph 85% 0.000 in
07:04 39.0 °F 34.0 °F 30.2 in North 6 mph 9 mph 84% 0.000 in
07:09 39.0 °F 34.0 °F 30.2 in North 3 mph 9 mph 84% 0.000 in
07:14 39.0 °F 34.0 °F 30.2 in NW 6 mph 9 mph 83% 0.000 in
07:19 38.0 °F 33.0 °F 30.2 in WNW 6 mph 6 mph 83% 0.000 in
07:24 38.0 °F 34.0 °F 30.2 in NW 5 mph 7 mph 84% 0.000 in
07:29 38.0 °F 34.0 °F 30.2 in NW 4 mph 7 mph 84% 0.000 in
07:34 38.0 °F 33.0 °F 30.3 in NW 5 mph 5 mph 84% 0.000 in
07:39 38.0 °F 33.0 °F 30.3 in WNW 4 mph 5 mph 85% 0.000 in
07:44 38.0 °F 33.0 °F 30.3 in NNW 1 mph 5 mph 85% 0.000 in
07:49 38.0 °F 33.0 °F 30.3 in WNW 5 mph 5 mph 84% 0.000 in
07:54 37.0 °F 33.0 °F 30.3 in NE 1 mph 5 mph 86% 0.000 in
07:59 37.0 °F 33.0 °F 30.3 in WNW 5 mph 7 mph 85% 0.000 in
08:04 37.0 °F 33.0 °F 30.3 in NW 8 mph 8 mph 86% 0.000 in
08:09 37.0 °F 33.0 °F 30.3 in NW 1 mph 8 mph 86% 0.000 in
08:14 37.0 °F 33.0 °F 30.3 in NNW 1 mph 3 mph 86% 0.000 in
08:19 37.0 °F 33.0 °F 30.3 in NNW 4 mph 8 mph 85% 0.000 in
08:24 38.0 °F 33.0 °F 30.3 in ENE 3 mph 6 mph 83% 0.000 in
08:29 38.0 °F 33.0 °F 30.3 in Calm   4 mph 83% 0.000 in
08:34 38.0 °F 33.0 °F 30.3 in NW 4 mph 5 mph 82% 0.000 in
08:39 38.0 °F 33.0 °F 30.3 in Calm   5 mph 82% 0.000 in
08:44 38.0 °F 33.0 °F 30.3 in NNE 4 mph 5 mph 82% 0.000 in
08:49 38.0 °F 33.0 °F 30.3 in North 1 mph 4 mph 81% 0.000 in
08:54 38.0 °F 33.0 °F 30.3 in Calm   2 mph 82% 0.000 in
08:59 38.0 °F 33.0 °F 30.3 in NNW 3 mph 5 mph 82% 0.000 in
09:04 38.0 °F 33.0 °F 30.3 in North 2 mph 7 mph 81% 0.000 in
09:09 38.0 °F 33.0 °F 30.3 in West 6 mph 7 mph 80% 0.000 in
09:14 38.0 °F 32.0 °F 30.3 in NNE 6 mph 9 mph 79% 0.000 in
09:19 38.0 °F 32.0 °F 30.3 in NNW 5 mph 9 mph 79% 0.000 in
09:24 39.0 °F 32.0 °F 30.3 in WNW 4 mph 6 mph 79% 0.000 in
09:29 39.0 °F 33.0 °F 30.3 in NNE 4 mph 7 mph 79% 0.000 in
09:34 39.0 °F 33.0 °F 30.3 in Calm   7 mph 80% 0.000 in
09:39 39.0 °F 33.0 °F 30.3 in NW 6 mph 7 mph 79% 0.000 in
09:44 39.0 °F 33.0 °F 30.3 in NW 8 mph 9 mph 78% 0.000 in
09:49 40.0 °F 33.0 °F 30.3 in NNW 7 mph 10 mph 77% 0.000 in
09:54 40.0 °F 33.0 °F 30.3 in NW 6 mph 6 mph 77% 0.000 in
09:59 40.0 °F 33.0 °F 30.3 in WNW 5 mph 9 mph 77% 0.000 in
10:04 40.0 °F 33.0 °F 30.3 in WNW 6 mph 9 mph 76% 0.000 in
10:09 40.0 °F 33.0 °F 30.3 in WNW 4 mph 6 mph 76% 0.000 in
10:14 41.0 °F 34.0 °F 30.3 in NNW 7 mph 8 mph 77% 0.000 in
10:19 41.0 °F 33.0 °F 30.3 in WNW 4 mph 5 mph 75% 0.000 in
10:24 41.0 °F 35.0 °F 30.3 in NW 3 mph 3 mph 77% 0.000 in
10:29 42.0 °F 35.0 °F 30.3 in NW 6 mph 6 mph 77% 0.000 in
10:34 42.0 °F 34.0 °F 30.3 in WNW 3 mph 6 mph 74% 0.000 in
10:39 42.0 °F 34.0 °F 30.3 in NNW 1 mph 5 mph 74% 0.000 in
10:44 42.0 °F 34.0 °F 30.3 in NNW 7 mph 7 mph 72% 0.000 in
10:49 42.0 °F 33.0 °F 30.3 in WNW 5 mph 10 mph 70% 0.000 in
10:54 43.0 °F 33.0 °F 30.3 in NNW 10 mph 10 mph 69% 0.000 in
10:59 43.0 °F 33.0 °F 30.3 in NNE 3 mph 4 mph 70% 0.000 in
11:04 43.0 °F 35.0 °F 30.3 in Calm   4 mph 71% 0.000 in
11:09 44.0 °F 35.0 °F 30.3 in NW 3 mph 6 mph 72% 0.000 in
11:14 44.0 °F 34.0 °F 30.3 in NNE 5 mph 5 mph 69% 0.000 in
11:19 44.0 °F 34.0 °F 30.3 in NE 4 mph 6 mph 67% 0.000 in
11:24 44.0 °F 35.0 °F 30.3 in NW 1 mph 2 mph 69% 0.000 in
11:29 44.0 °F 34.0 °F 30.3 in North 4 mph 8 mph 68% 0.000 in
11:34 44.0 °F 33.0 °F 30.3 in WNW 7 mph 10 mph 65% 0.000 in
11:39 45.0 °F 34.0 °F 30.3 in NNW 8 mph 8 mph 65% 0.000 in
11:44 45.0 °F 34.0 °F 30.3 in WNW 3 mph 7 mph 66% 0.000 in
11:49 45.0 °F 34.0 °F 30.3 in North 3 mph 5 mph 66% 0.000 in
11:54 45.0 °F 35.0 °F 30.3 in NNW 4 mph 7 mph 66% 0.000 in
11:59 46.0 °F 34.0 °F 30.3 in NE 4 mph 7 mph 64% 0.000 in
12:04 46.0 °F 34.0 °F 30.3 in NNW 3 mph 12 mph 64% 0.000 in
12:09 46.0 °F 35.0 °F 30.3 in Calm   4 mph 64% 0.000 in
12:14 46.0 °F 35.0 °F 30.3 in East 4 mph 7 mph 64% 0.000 in
12:19 46.0 °F 35.0 °F 30.3 in NW 4 mph 5 mph 64% 0.000 in
12:24 47.0 °F 36.0 °F 30.3 in West 3 mph 6 mph 66% 0.000 in
12:29 47.0 °F 36.0 °F 30.2 in NW 1 mph 6 mph 66% 0.000 in
12:34 47.0 °F 36.0 °F 30.2 in WNW 5 mph 6 mph 66% 0.000 in
12:39 47.0 °F 35.0 °F 30.2 in WNW 3 mph 7 mph 64% 0.000 in
12:44 47.0 °F 35.0 °F 30.2 in NNW 5 mph 7 mph 62% 0.000 in
12:49 47.0 °F 35.0 °F 30.2 in North 2 mph 3 mph 62% 0.000 in
12:54 48.0 °F 35.0 °F 30.2 in Calm   3 mph 62% 0.000 in
12:59 48.0 °F 35.0 °F 30.2 in NW 5 mph 6 mph 62% 0.000 in
13:04 48.0 °F 36.0 °F 30.2 in NNW 1 mph 6 mph 63% 0.000 in
13:09 48.0 °F 36.0 °F 30.2 in WNW 6 mph 6 mph 62% 0.000 in
13:14 48.0 °F 35.0 °F 30.2 in NNW 9 mph 9 mph 60% 0.000 in
13:19 49.0 °F 35.0 °F 30.2 in ENE 2 mph 9 mph 59% 0.000 in
13:24 49.0 °F 35.0 °F 30.2 in NNW 5 mph 8 mph 59% 0.000 in
13:29 49.0 °F 35.0 °F 30.2 in NNW 4 mph 10 mph 58% 0.000 in
13:34 48.0 °F 34.0 °F 30.2 in NW 4 mph 9 mph 58% 0.000 in
13:39 48.0 °F 35.0 °F 30.2 in NNE 2 mph 7 mph 60% 0.000 in
13:44 49.0 °F 35.0 °F 30.2 in WNW 3 mph 4 mph 60% 0.000 in
13:49 49.0 °F 35.0 °F 30.2 in NW 4 mph 6 mph 59% 0.000 in
13:54 50.0 °F 36.0 °F 30.2 in NNW 1 mph 3 mph 59% 0.000 in
13:59 50.0 °F 35.0 °F 30.2 in WNW 7 mph 8 mph 58% 0.000 in
14:04 50.0 °F 35.0 °F 30.2 in NW 1 mph 5 mph 58% 0.000 in
14:09 50.0 °F 35.0 °F 30.2 in North 4 mph 6 mph 57% 0.000 in
14:14 50.0 °F 35.0 °F 30.2 in NNW 4 mph 6 mph 56% 0.000 in
14:19 50.0 °F 35.0 °F 30.2 in NNW 5 mph 6 mph 56% 0.000 in
14:24 50.0 °F 35.0 °F 30.2 in NNW 3 mph 5 mph 57% 0.000 in
14:29 50.0 °F 35.0 °F 30.2 in NW 5 mph 7 mph 56% 0.000 in
14:34 50.0 °F 35.0 °F 30.2 in NNW 3 mph 7 mph 58% 0.000 in
14:39 50.0 °F 34.0 °F 30.2 in North 2 mph 9 mph 56% 0.000 in
14:44 49.0 °F 34.0 °F 30.2 in NNW 7 mph 9 mph 57% 0.000 in
14:49 49.0 °F 35.0 °F 30.2 in NW 4 mph 6 mph 59% 0.000 in
14:54 49.0 °F 34.0 °F 30.2 in North 4 mph 9 mph 57% 0.000 in
14:59 48.0 °F 34.0 °F 30.2 in NW 2 mph 6 mph 57% 0.000 in
15:04 48.0 °F 33.0 °F 30.2 in NNW 4 mph 6 mph 56% 0.000 in
15:09 48.0 °F 33.0 °F 30.2 in WNW 8 mph 11 mph 56% 0.000 in
15:14 48.0 °F 33.0 °F 30.2 in NE 3 mph 5 mph 56% 0.000 in
15:19 48.0 °F 33.0 °F 30.2 in NW 3 mph 6 mph 57% 0.000 in
15:24 48.0 °F 33.0 °F 30.2 in West 3 mph 6 mph 57% 0.000 in
15:29 48.0 °F 33.0 °F 30.2 in NW 3 mph 5 mph 57% 0.000 in
15:34 48.0 °F 33.0 °F 30.2 in NW 3 mph 9 mph 57% 0.000 in
15:39 48.0 °F 34.0 °F 30.2 in NW 4 mph 5 mph 59% 0.000 in
15:44 48.0 °F 33.0 °F 30.2 in Calm   5 mph 57% 0.000 in
15:49 47.0 °F 33.0 °F 30.2 in NW 3 mph 4 mph 57% 0.000 in
15:54 47.0 °F 33.0 °F 30.2 in NNE 4 mph 6 mph 59% 0.000 in
15:59 47.0 °F 33.0 °F 30.2 in WNW 4 mph 6 mph 58% 0.000 in
16:04 47.0 °F 33.0 °F 30.2 in NNE 2 mph 6 mph 58% 0.000 in
16:09 47.0 °F 33.0 °F 30.2 in NNW 2 mph 3 mph 58% 0.000 in
16:14 47.0 °F 32.0 °F 30.2 in NNW 5 mph 6 mph 58% 0.000 in
16:19 46.0 °F 33.0 °F 30.2 in NW 2 mph 7 mph 59% 0.000 in
16:24 46.0 °F 33.0 °F 30.2 in North 3 mph 5 mph 60% 0.000 in
16:29 46.0 °F 33.0 °F 30.2 in NW 3 mph 6 mph 60% 0.000 in
16:34 45.0 °F 32.0 °F 30.2 in Calm   3 mph 60% 0.000 in
16:39 45.0 °F 32.0 °F 30.2 in NW 2 mph 2 mph 60% 0.000 in
16:44 45.0 °F 33.0 °F 30.2 in Calm   1 mph 62% 0.000 in
16:49 45.0 °F 32.0 °F 30.2 in NW 1 mph 2 mph 61% 0.000 in
16:54 44.0 °F 33.0 °F 30.2 in WNW 1 mph 3 mph 63% 0.000 in
16:59 44.0 °F 32.0 °F 30.2 in Calm   3 mph 63% 0.000 in
17:04 44.0 °F 32.0 °F 30.2 in Calm   1 mph 63% 0.000 in
17:09 44.0 °F 32.0 °F 30.2 in NW 3 mph 4 mph 64% 0.000 in
17:14 43.0 °F 32.0 °F 30.2 in NW 1 mph 5 mph 65% 0.000 in
17:19 43.0 °F 32.0 °F 30.2 in Calm   1 mph 65% 0.000 in
17:24 43.0 °F 32.0 °F 30.2 in WNW 3 mph 4 mph 65% 0.000 in
17:29 43.0 °F 32.0 °F 30.2 in Calm   1 mph 66% 0.000 in
17:34 42.0 °F 32.0 °F 30.2 in Calm     67% 0.000 in
17:39 42.0 °F 32.0 °F 30.2 in Calm   2 mph 66% 0.000 in
17:44 42.0 °F 32.0 °F 30.2 in North 1 mph 2 mph 67% 0.000 in
17:49 42.0 °F 32.0 °F 30.2 in Calm   3 mph 68% 0.000 in
17:54 41.0 °F 32.0 °F 30.3 in Calm     69% 0.000 in
17:59 41.0 °F 32.0 °F 30.3 in Calm     70% 0.000 in
18:04 41.0 °F 32.0 °F 30.3 in Calm   1 mph 71% 0.000 in
18:09 41.0 °F 32.0 °F 30.3 in Calm     71% 0.000 in
18:14 40.0 °F 32.0 °F 30.3 in Calm     71% 0.000 in
18:19 40.0 °F 32.0 °F 30.3 in Calm     72% 0.000 in
18:24 40.0 °F 32.0 °F 30.3 in Calm     73% 0.000 in
18:29 40.0 °F 32.0 °F 30.3 in Calm     73% 0.000 in
18:34 39.0 °F 31.0 °F 30.3 in Calm     74% 0.000 in
18:39 39.0 °F 31.0 °F 30.3 in Calm     74% 0.000 in
18:44 39.0 °F 31.0 °F 30.3 in Calm     75% 0.000 in
18:49 38.0 °F 32.0 °F 30.3 in Calm     76% 0.000 in
18:54 38.0 °F 31.0 °F 30.3 in Calm     76% 0.000 in
18:59 38.0 °F 31.0 °F 30.3 in Calm     77% 0.000 in
19:04 37.0 °F 31.0 °F 30.3 in Calm     78% 0.000 in
19:09 37.0 °F 31.0 °F 30.3 in Calm     79% 0.000 in
19:14 37.0 °F 31.0 °F 30.3 in Calm     80% 0.000 in
19:19 36.0 °F 31.0 °F 30.3 in Calm     81% 0.000 in
19:24 36.0 °F 31.0 °F 30.3 in Calm     81% 0.000 in
19:29 36.0 °F 31.0 °F 30.3 in Calm     82% 0.000 in
19:34 36.0 °F 31.0 °F 30.3 in Calm     82% 0.000 in
19:39 35.0 °F 31.0 °F 30.3 in Calm     82% 0.000 in
19:44 35.0 °F 31.0 °F 30.3 in Calm     83% 0.000 in
19:49 35.0 °F 30.0 °F 30.3 in Calm     83% 0.000 in
19:54 35.0 °F 30.0 °F 30.3 in Calm     84% 0.000 in
19:59 34.0 °F 30.0 °F 30.3 in Calm     84% 0.000 in
20:04 34.0 °F 30.0 °F 30.3 in Calm     84% 0.000 in
20:09 34.0 °F 30.0 °F 30.3 in Calm     85% 0.000 in
20:14 34.0 °F 30.0 °F 30.3 in Calm     86% 0.000 in
20:19 33.0 °F 30.0 °F 30.3 in Calm     86% 0.000 in
20:24 33.0 °F 30.0 °F 30.3 in Calm     87% 0.000 in
20:29 33.0 °F 30.0 °F 30.3 in Calm     87% 0.000 in
20:34 33.0 °F 30.0 °F 30.3 in Calm     87% 0.000 in
20:39 33.0 °F 29.0 °F 30.3 in Calm     87% 0.000 in
20:44 33.0 °F 29.0 °F 30.3 in Calm     88% 0.000 in
20:49 33.0 °F 29.0 °F 30.3 in Calm     88% 0.000 in
20:54 32.0 °F 29.0 °F 30.3 in Calm     88% 0.000 in
20:59 32.0 °F 29.0 °F 30.3 in Calm     89% 0.000 in
21:04 32.0 °F 29.0 °F 30.3 in Calm     89% 0.000 in
21:09 32.0 °F 29.0 °F 30.3 in Calm     89% 0.000 in
21:14 32.0 °F 29.0 °F 30.3 in Calm     89% 0.000 in
21:19 32.0 °F 29.0 °F 30.3 in Calm     89% 0.000 in
21:24 32.0 °F 29.0 °F 30.3 in Calm     89% 0.000 in
21:29 32.0 °F 29.0 °F 30.3 in Calm     90% 0.000 in
21:34 32.0 °F 29.0 °F 30.3 in Calm     90% 0.000 in
21:39 32.0 °F 29.0 °F 30.3 in Calm     90% 0.000 in
21:44 32.0 °F 29.0 °F 30.3 in Calm     90% 0.000 in
21:49 31.0 °F 29.0 °F 30.3 in Calm     90% 0.000 in
21:54 31.0 °F 29.0 °F 30.3 in Calm     90% 0.000 in
21:59 31.0 °F 29.0 °F 30.3 in Calm     91% 0.000 in
22:04 31.0 °F 29.0 °F 30.3 in Calm     91% 0.000 in
22:09 31.0 °F 29.0 °F 30.3 in Calm     91% 0.000 in
22:14 31.0 °F 28.0 °F 30.3 in Calm     91% 0.000 in
22:19 31.0 °F 28.0 °F 30.3 in Calm     91% 0.000 in
22:24 31.0 °F 28.0 °F 30.3 in Calm     91% 0.000 in
22:29 31.0 °F 29.0 °F 30.3 in Calm     92% 0.000 in
22:34 30.0 °F 28.0 °F 30.3 in Calm     92% 0.000 in
22:39 30.0 °F 28.0 °F 30.3 in Calm     92% 0.000 in
22:44 30.0 °F 28.0 °F 30.3 in Calm     92% 0.000 in
22:49 30.0 °F 28.0 °F 30.3 in Calm     92% 0.000 in
22:54 30.0 °F 28.0 °F 30.3 in Calm     92% 0.000 in
22:59 30.0 °F 28.0 °F 30.3 in Calm     93% 0.000 in
23:04 30.0 °F 28.0 °F 30.3 in Calm     93% 0.000 in
23:09 30.0 °F 28.0 °F 30.3 in Calm     93% 0.000 in
23:14 30.0 °F 28.0 °F 30.3 in Calm     93% 0.000 in
23:19 30.0 °F 28.0 °F 30.3 in Calm     93% 0.000 in
23:24 30.0 °F 28.0 °F 30.3 in Calm     93% 0.000 in
23:29 30.0 °F 28.0 °F 30.3 in Calm     93% 0.000 in
23:34 30.0 °F 28.0 °F 30.3 in Calm     93% 0.000 in
23:39 30.0 °F 28.0 °F 30.3 in Calm     93% 0.000 in
23:44 29.0 °F 28.0 °F 30.3 in Calm     93% 0.000 in
23:49 29.0 °F 27.0 °F 30.3 in Calm     93% 0.000 in
23:54 29.0 °F 27.0 °F 30.3 in Calm     93% 0.000 in
23:59 29.0 °F 27.0 °F 30.3 in Calm     93% 0.000 in
East Ellijay Weather
Compliments of Weather Underground - 2 mb